createdAt,value
2019-04-23T00:00:20.473Z,14.94
2019-04-23T00:01:29.513Z,15.00
2019-04-23T00:02:22.042Z,14.88
2019-04-23T00:03:23.395Z,14.89
2019-04-23T00:04:20.459Z,14.88
2019-04-23T00:05:30.497Z,14.86
2019-04-23T00:06:28.827Z,14.84
2019-04-23T00:07:35.909Z,14.70
2019-04-23T00:08:26.044Z,14.77
2019-04-23T00:09:30.383Z,14.69
2019-04-23T00:10:26.216Z,14.63
2019-04-23T00:11:19.308Z,14.50
2019-04-23T00:12:30.947Z,14.54
2019-04-23T00:13:24.670Z,14.47
2019-04-23T00:14:35.429Z,14.51
2019-04-23T00:16:26.557Z,14.48
2019-04-23T00:17:22.740Z,14.47
2019-04-23T00:18:22.725Z,14.45
2019-04-23T00:19:22.899Z,14.44
2019-04-23T00:20:22.028Z,14.43
2019-04-23T00:21:23.568Z,14.43
2019-04-23T00:22:20.285Z,14.47
2019-04-23T00:23:16.341Z,14.43
2019-04-23T00:24:32.970Z,14.36
2019-04-23T00:26:25.734Z,14.37
2019-04-23T00:27:40.518Z,14.45
2019-04-23T00:28:31.813Z,14.35
2019-04-23T00:29:19.001Z,14.36
2019-04-23T00:30:34.739Z,14.29
2019-04-23T00:32:23.447Z,14.32
2019-04-23T00:34:16.366Z,14.23
2019-04-23T00:35:24.415Z,14.29
2019-04-23T00:36:25.645Z,14.25
2019-04-23T00:37:25.644Z,14.23
2019-04-23T00:39:23.438Z,14.23
2019-04-23T00:40:19.141Z,14.20
2019-04-23T00:41:20.830Z,14.23
2019-04-23T00:42:20.551Z,14.23
2019-04-23T00:43:22.266Z,14.26
2019-04-23T00:44:22.929Z,14.15
2019-04-23T00:45:27.040Z,14.18
2019-04-23T00:46:25.919Z,14.12
2019-04-23T00:47:26.806Z,14.10
2019-04-23T00:48:31.216Z,14.03
2019-04-23T00:49:27.310Z,14.04
2019-04-23T00:50:20.749Z,14.08
2019-04-23T00:51:18.830Z,14.03
2019-04-23T00:52:20.886Z,13.97
2019-04-23T00:54:24.086Z,14.03
2019-04-23T00:55:38.596Z,14.08
2019-04-23T00:57:24.198Z,14.05
2019-04-23T00:59:21.274Z,14.07
2019-04-23T01:00:24.298Z,14.05
2019-04-23T01:01:18.274Z,13.95
2019-04-23T01:02:29.692Z,13.96
2019-04-23T01:03:17.525Z,13.96
2019-04-23T01:04:18.565Z,13.95
2019-04-23T01:06:19.748Z,13.90
2019-04-23T01:07:18.371Z,13.87
2019-04-23T01:08:29.736Z,13.77
2019-04-23T01:09:22.491Z,13.81
2019-04-23T01:10:20.242Z,13.79
2019-04-23T01:12:25.666Z,13.89
2019-04-23T01:13:22.831Z,13.89
2019-04-23T01:14:23.017Z,13.85
2019-04-23T01:15:25.554Z,13.85
2019-04-23T01:16:16.020Z,13.78
2019-04-23T01:17:26.650Z,13.81
2019-04-23T01:18:35.860Z,13.77
2019-04-23T01:19:24.401Z,13.74
2019-04-23T01:20:24.621Z,13.78
2019-04-23T01:20:58.473Z,13.74
2019-04-23T01:21:57.901Z,13.65
2019-04-23T01:22:57.337Z,13.71
2019-04-23T01:24:02.754Z,13.72
2019-04-23T01:25:11.133Z,13.72
2019-04-23T01:26:16.403Z,13.70
2019-04-23T01:28:23.860Z,13.60
2019-04-23T01:29:26.130Z,13.56
2019-04-23T01:30:19.818Z,13.54
2019-04-23T01:32:30.421Z,13.50
2019-04-23T01:33:29.559Z,13.52
2019-04-23T01:34:25.790Z,13.41
2019-04-23T01:35:32.692Z,13.54
2019-04-23T01:37:25.650Z,13.42
2019-04-23T01:38:29.367Z,13.49
2019-04-23T01:39:23.056Z,13.46
2019-04-23T01:40:27.133Z,13.49
2019-04-23T01:41:27.006Z,13.52
2019-04-23T01:42:29.353Z,13.53
2019-04-23T01:43:22.867Z,13.47
2019-04-23T01:44:34.171Z,13.52
2019-04-23T01:45:24.270Z,13.49
2019-04-23T01:46:22.003Z,13.41
2019-04-23T01:47:25.022Z,13.47
2019-04-23T01:48:18.532Z,13.38
2019-04-23T01:49:30.586Z,13.53
2019-04-23T01:51:26.232Z,13.53
2019-04-23T01:52:36.218Z,13.49
2019-04-23T01:54:25.924Z,13.41
2019-04-23T01:55:31.518Z,13.44
2019-04-23T01:56:24.657Z,13.47
2019-04-23T01:57:28.955Z,13.41
2019-04-23T01:59:26.327Z,13.28
2019-04-23T02:01:29.630Z,13.23
2019-04-23T02:02:29.825Z,13.27
2019-04-23T02:03:21.404Z,13.16
2019-04-23T02:04:28.517Z,13.20
2019-04-23T02:06:28.140Z,13.04
2019-04-23T02:07:29.686Z,13.15
2019-04-23T02:08:20.755Z,13.15
2019-04-23T02:09:27.308Z,13.16
2019-04-23T02:10:32.920Z,13.12
2019-04-23T02:11:16.454Z,13.16
2019-04-23T02:12:28.913Z,13.22
2019-04-23T02:15:26.420Z,13.11
2019-04-23T02:16:24.689Z,13.09
2019-04-23T02:17:21.980Z,13.13
2019-04-23T02:18:25.408Z,13.16
2019-04-23T02:19:23.557Z,13.15
2019-04-23T02:21:25.817Z,13.04
2019-04-23T02:22:31.017Z,12.94
2019-04-23T02:23:24.923Z,13.04
2019-04-23T02:24:27.807Z,13.00
2019-04-23T02:25:35.627Z,13.00
2019-04-23T02:26:36.917Z,13.00
2019-04-23T02:27:28.301Z,12.94
2019-04-23T02:28:25.351Z,12.87
2019-04-23T02:29:37.401Z,12.87
2019-04-23T02:31:47.138Z,12.93
2019-04-23T02:32:31.948Z,12.78
2019-04-23T02:34:42.928Z,12.76
2019-04-23T02:35:46.750Z,12.76
2019-04-23T02:36:32.500Z,12.72
2019-04-23T02:37:50.732Z,12.65
2019-04-23T02:38:40.595Z,12.82
2019-04-23T02:39:49.885Z,12.62
2019-04-23T02:40:38.155Z,12.68
2019-04-23T02:43:35.532Z,12.68
2019-04-23T02:44:31.756Z,12.67
2019-04-23T02:45:43.959Z,12.68
2019-04-23T02:46:17.455Z,12.67
2019-04-23T02:47:34.891Z,12.68
2019-04-23T02:49:36.024Z,12.68
2019-04-23T02:51:42.407Z,12.68
2019-04-23T02:52:34.207Z,12.50
2019-04-23T02:54:46.570Z,12.62
2019-04-23T02:55:38.940Z,12.49
2019-04-23T02:57:29.761Z,12.54
2019-04-23T02:59:56.027Z,12.55
2019-04-23T03:00:55.685Z,12.54
2019-04-23T03:03:38.335Z,12.46
2019-04-23T03:04:35.674Z,12.42
2019-04-23T03:05:24.984Z,12.43
2019-04-23T03:06:32.201Z,12.43
2019-04-23T03:08:32.980Z,12.45
2019-04-23T03:09:44.929Z,12.45
2019-04-23T03:10:32.263Z,12.42
2019-04-23T03:11:34.319Z,12.36
2019-04-23T03:12:31.395Z,12.42
2019-04-23T03:17:26.374Z,12.22
2019-04-23T03:18:42.215Z,12.29
2019-04-23T03:20:37.932Z,12.20
2019-04-23T03:21:31.353Z,12.21
2019-04-23T03:22:25.691Z,12.20
2019-04-23T03:23:49.971Z,12.15
2019-04-23T03:24:36.445Z,12.17
2019-04-23T03:26:40.793Z,12.10
2019-04-23T03:28:35.839Z,12.21
2019-04-23T03:29:40.490Z,12.15
2019-04-23T03:33:11.077Z,12.06
2019-04-23T03:36:17.028Z,12.06
2019-04-23T03:37:34.041Z,12.02
2019-04-23T03:38:41.738Z,12.00
2019-04-23T03:39:40.142Z,12.04
2019-04-23T03:40:19.283Z,12.07
2019-04-23T03:41:27.898Z,12.06
2019-04-23T03:42:38.741Z,11.94
2019-04-23T03:43:33.677Z,11.94
2019-04-23T03:44:47.807Z,11.95
2019-04-23T03:45:43.612Z,11.94
2019-04-23T03:46:30.415Z,11.91
2019-04-23T03:48:34.130Z,11.94
2019-04-23T03:49:31.401Z,11.84
2019-04-23T03:53:45.422Z,11.77
2019-04-23T03:54:37.683Z,11.77
2019-04-23T03:55:43.413Z,11.70
2019-04-23T03:56:44.667Z,11.72
2019-04-23T03:57:31.069Z,11.73
2019-04-23T03:58:49.390Z,11.73
2019-04-23T03:59:52.032Z,11.69
2019-04-23T04:00:37.278Z,11.68
2019-04-23T04:01:46.026Z,11.72
2019-04-23T04:03:52.978Z,11.62
2019-04-23T04:06:37.526Z,11.63
2019-04-23T04:07:36.305Z,11.50
2019-04-23T04:08:26.729Z,11.52
2019-04-23T04:09:34.829Z,11.60
2019-04-23T04:10:38.374Z,11.54
2019-04-23T04:11:29.349Z,11.51
2019-04-23T04:13:31.004Z,11.52
2019-04-23T04:14:45.760Z,11.51
2019-04-23T04:16:28.653Z,11.48
2019-04-23T04:17:33.014Z,11.50
2019-04-23T04:18:44.433Z,11.44
2019-04-23T04:20:35.301Z,11.47
2019-04-23T04:22:43.999Z,11.51
2019-04-23T04:23:35.123Z,11.47
2019-04-23T04:25:37.106Z,11.50
2019-04-23T04:26:40.995Z,11.47
2019-04-23T04:27:37.755Z,11.52
2019-04-23T04:28:48.889Z,11.51
2019-04-23T04:29:44.552Z,11.45
2019-04-23T04:31:42.977Z,11.55
2019-04-23T04:32:54.522Z,11.52
2019-04-23T04:33:46.974Z,11.52
2019-04-23T04:35:00.304Z,11.51
2019-04-23T04:35:22.201Z,11.48
2019-04-23T04:39:33.984Z,11.41
2019-04-23T04:40:45.634Z,11.54
2019-04-23T04:42:25.351Z,11.52
2019-04-23T04:47:36.831Z,11.52
2019-04-23T04:48:33.283Z,11.45
2019-04-23T04:49:31.895Z,11.55
2019-04-23T04:50:26.397Z,11.52
2019-04-23T04:52:49.113Z,11.51
2019-04-23T04:55:28.355Z,11.54
2019-04-23T04:58:30.803Z,11.62
2019-04-23T05:00:45.673Z,11.60
2019-04-23T05:02:41.806Z,11.59
2019-04-23T05:05:55.335Z,11.59
2019-04-23T05:08:28.918Z,11.73
2019-04-23T05:09:29.298Z,11.70
2019-04-23T05:10:32.521Z,11.72
2019-04-23T05:12:36.114Z,11.73
2019-04-23T05:15:25.652Z,11.80
2019-04-23T05:16:33.436Z,11.86
2019-04-23T05:17:36.009Z,11.88
2019-04-23T05:19:35.501Z,11.95
2019-04-23T05:20:26.097Z,11.94
2019-04-23T05:21:26.501Z,12.00
2019-04-23T05:22:24.544Z,11.91
2019-04-23T05:25:20.884Z,12.06
2019-04-23T05:26:25.126Z,11.94
2019-04-23T05:27:17.890Z,12.06
2019-04-23T05:28:36.644Z,12.12
2019-04-23T05:29:14.498Z,12.04
2019-04-23T05:30:32.949Z,12.18
2019-04-23T05:32:21.934Z,12.20
2019-04-23T05:33:23.902Z,12.12
2019-04-23T05:34:24.668Z,12.12
2019-04-23T05:35:42.805Z,12.12
2019-04-23T05:36:35.900Z,12.20
2019-04-23T05:37:23.006Z,12.27
2019-04-23T05:38:37.478Z,12.20
2019-04-23T05:39:29.071Z,12.27
2019-04-23T05:40:30.459Z,12.25
2019-04-23T05:41:36.490Z,12.28
2019-04-23T05:42:19.903Z,12.29
2019-04-23T05:43:19.279Z,12.32
2019-04-23T05:44:38.339Z,12.39
2019-04-23T05:45:21.899Z,12.32
2019-04-23T05:46:26.434Z,12.37
2019-04-23T05:50:38.605Z,12.46
2019-04-23T05:51:28.221Z,12.42
2019-04-23T05:52:24.107Z,12.49
2019-04-23T05:54:26.608Z,12.60
2019-04-23T05:55:23.640Z,12.50
2019-04-23T05:56:21.400Z,12.58
2019-04-23T05:57:19.793Z,12.58
2019-04-23T05:58:28.836Z,12.57
2019-04-23T05:59:23.114Z,12.68
2019-04-23T06:00:28.889Z,12.73
2019-04-23T06:01:41.717Z,12.76
2019-04-23T06:02:20.775Z,12.78
2019-04-23T06:03:26.455Z,12.91
2019-04-23T06:04:38.854Z,12.87
2019-04-23T06:05:25.144Z,12.93
2019-04-23T06:06:33.162Z,12.91
2019-04-23T06:07:31.875Z,12.93
2019-04-23T06:08:25.781Z,13.00
2019-04-23T06:10:23.415Z,12.95
2019-04-23T06:11:28.494Z,13.09
2019-04-23T06:12:34.842Z,13.11
2019-04-23T06:13:26.950Z,13.05
2019-04-23T06:15:24.145Z,13.19
2019-04-23T06:16:31.414Z,13.04
2019-04-23T06:17:21.349Z,13.19
2019-04-23T06:18:28.573Z,13.15
2019-04-23T06:19:21.439Z,13.22
2019-04-23T06:20:30.933Z,13.28
2019-04-23T06:21:26.748Z,13.31
2019-04-23T06:22:30.152Z,13.28
2019-04-23T06:23:31.828Z,13.25
2019-04-23T06:24:32.991Z,13.31
2019-04-23T06:25:42.232Z,13.37
2019-04-23T06:26:33.065Z,13.35
2019-04-23T06:27:26.014Z,13.27
2019-04-23T06:28:24.549Z,13.44
2019-04-23T06:29:25.491Z,13.44
2019-04-23T06:30:26.626Z,13.46
2019-04-23T06:31:24.774Z,13.46
2019-04-23T06:32:19.336Z,13.52
2019-04-23T06:34:26.539Z,13.59
2019-04-23T06:35:23.827Z,13.59
2019-04-23T06:36:26.028Z,13.60
2019-04-23T06:37:32.460Z,13.57
2019-04-23T06:39:15.835Z,13.68
2019-04-23T06:40:25.212Z,13.74
2019-04-23T06:41:21.338Z,13.65
2019-04-23T06:42:21.078Z,13.72
2019-04-23T06:45:14.824Z,13.74
2019-04-23T06:46:20.836Z,13.79
2019-04-23T06:47:19.984Z,13.81
2019-04-23T06:48:22.165Z,13.92
2019-04-23T06:49:24.288Z,13.79
2019-04-23T06:50:21.147Z,13.85
2019-04-23T06:51:29.199Z,13.95
2019-04-23T06:53:21.022Z,14.05
2019-04-23T06:54:27.870Z,14.15
2019-04-23T06:55:20.831Z,14.15
2019-04-23T06:56:26.545Z,14.22
2019-04-23T06:58:25.938Z,14.11
2019-04-23T07:00:23.933Z,14.26
2019-04-23T07:01:17.605Z,14.29
2019-04-23T07:03:23.140Z,14.30
2019-04-23T07:04:29.014Z,14.44
2019-04-23T07:05:28.027Z,14.45
2019-04-23T07:08:26.634Z,14.65
2019-04-23T07:09:26.275Z,14.60
2019-04-23T07:10:42.207Z,14.62
2019-04-23T07:11:27.051Z,14.68
2019-04-23T07:12:21.964Z,14.73
2019-04-23T07:13:21.160Z,14.63
2019-04-23T07:14:12.904Z,14.65
2019-04-23T07:15:33.821Z,14.81
2019-04-23T07:16:34.650Z,14.78
2019-04-23T07:17:13.309Z,14.88
2019-04-23T07:18:24.566Z,14.89
2019-04-23T07:19:26.903Z,14.91
2019-04-23T07:20:24.313Z,14.89
2019-04-23T07:23:28.455Z,14.91
2019-04-23T07:24:16.864Z,15.03
2019-04-23T07:25:26.264Z,15.06
2019-04-23T07:27:21.198Z,15.11
2019-04-23T07:28:27.509Z,15.17
2019-04-23T07:29:17.825Z,15.22
2019-04-23T07:30:26.241Z,15.22
2019-04-23T07:32:15.165Z,15.19
2019-04-23T07:33:18.703Z,15.27
2019-04-23T07:34:18.807Z,15.33
2019-04-23T07:35:25.725Z,15.33
2019-04-23T07:36:31.046Z,15.21
2019-04-23T07:37:17.594Z,15.28
2019-04-23T07:38:33.609Z,15.29
2019-04-23T07:39:22.592Z,15.36
2019-04-23T07:40:27.538Z,15.40
2019-04-23T07:41:34.349Z,15.44
2019-04-23T07:42:24.769Z,15.46
2019-04-23T07:43:23.418Z,15.40
2019-04-23T07:44:28.257Z,15.46
2019-04-23T07:45:28.116Z,15.49
2019-04-23T07:46:27.358Z,15.58
2019-04-23T07:49:26.522Z,15.67
2019-04-23T07:50:38.062Z,15.57
2019-04-23T07:51:20.942Z,15.62
2019-04-23T07:52:27.658Z,15.61
2019-04-23T07:54:24.092Z,15.70
2019-04-23T07:55:25.475Z,15.76
2019-04-23T07:56:24.123Z,15.82
2019-04-23T07:57:18.797Z,15.94
2019-04-23T07:58:36.493Z,15.97
2019-04-23T07:59:24.914Z,15.92
2019-04-23T08:00:29.702Z,15.98
2019-04-23T08:01:17.794Z,16.09
2019-04-23T08:02:27.414Z,16.10
2019-04-23T08:04:31.799Z,16.29
2019-04-23T08:05:22.393Z,16.23
2019-04-23T08:06:19.476Z,16.23
2019-04-23T08:07:19.929Z,16.26
2019-04-23T08:08:16.947Z,16.28
2019-04-23T08:09:26.276Z,16.28
2019-04-23T08:10:22.816Z,16.31
2019-04-23T08:11:33.243Z,16.35
2019-04-23T08:12:25.090Z,16.38
2019-04-23T08:13:24.239Z,16.38
2019-04-23T08:14:13.594Z,16.38
2019-04-23T08:15:21.614Z,16.31
2019-04-23T08:16:29.435Z,16.35
2019-04-23T08:18:29.687Z,16.43
2019-04-23T08:19:24.439Z,16.46
2019-04-23T08:20:23.298Z,16.47
2019-04-23T08:21:21.219Z,16.47
2019-04-23T08:23:27.647Z,16.56
2019-04-23T08:24:16.988Z,16.53
2019-04-23T08:25:17.708Z,16.56
2019-04-23T08:26:29.545Z,16.53
2019-04-23T08:27:20.071Z,16.51
2019-04-23T08:28:34.072Z,16.53
2019-04-23T08:29:27.562Z,16.49
2019-04-23T08:30:15.863Z,16.60
2019-04-23T08:31:27.933Z,16.54
2019-04-23T08:32:19.605Z,16.53
2019-04-23T08:33:19.174Z,16.58
2019-04-23T08:34:33.852Z,16.57
2019-04-23T08:35:35.814Z,16.68
2019-04-23T08:36:37.539Z,16.65
2019-04-23T08:37:27.357Z,16.66
2019-04-23T08:38:25.877Z,16.69
2019-04-23T08:39:21.523Z,16.72
2019-04-23T08:40:26.379Z,16.74
2019-04-23T08:41:28.511Z,16.69
2019-04-23T08:43:29.639Z,16.89
2019-04-23T08:45:24.230Z,16.96
2019-04-23T08:46:24.778Z,17.06
2019-04-23T08:47:36.498Z,17.14
2019-04-23T08:48:30.564Z,17.15
2019-04-23T08:50:21.605Z,17.27
2019-04-23T08:52:18.360Z,17.26
2019-04-23T08:54:32.217Z,17.14
2019-04-23T08:55:20.955Z,17.16
2019-04-23T08:56:23.678Z,17.16
2019-04-23T08:57:22.618Z,17.12
2019-04-23T08:58:25.183Z,17.08
2019-04-23T08:59:25.235Z,17.09
2019-04-23T09:00:31.438Z,17.20
2019-04-23T09:01:17.171Z,17.11
2019-04-23T09:02:31.053Z,17.23
2019-04-23T09:04:27.207Z,17.22
2019-04-23T09:05:28.540Z,17.19
2019-04-23T09:06:17.219Z,17.11
2019-04-23T09:07:26.574Z,17.16
2019-04-23T09:08:24.561Z,17.16
2019-04-23T09:09:20.083Z,17.16
2019-04-23T09:10:19.618Z,17.16
2019-04-23T09:11:35.788Z,17.19
2019-04-23T09:12:23.902Z,17.31
2019-04-23T09:14:11.813Z,17.29
2019-04-23T09:15:28.365Z,17.27
2019-04-23T09:16:22.160Z,17.26
2019-04-23T09:18:22.087Z,17.31
2019-04-23T09:19:23.431Z,17.23
2019-04-23T09:20:21.848Z,17.34
2019-04-23T09:21:22.565Z,17.39
2019-04-23T09:23:20.601Z,17.42
2019-04-23T09:24:21.528Z,17.41
2019-04-23T09:25:30.038Z,17.41
2019-04-23T09:26:15.797Z,17.41
2019-04-23T09:27:31.601Z,17.52
2019-04-23T09:28:27.545Z,17.51
2019-04-23T09:29:26.682Z,17.51
2019-04-23T09:30:18.822Z,17.64
2019-04-23T09:31:55.154Z,17.65
2019-04-23T09:32:29.876Z,17.65
2019-04-23T09:33:27.901Z,17.60
2019-04-23T09:34:16.643Z,17.65
2019-04-23T09:35:20.689Z,17.68
2019-04-23T09:36:22.412Z,17.71
2019-04-23T09:38:19.858Z,17.79
2019-04-23T09:39:20.608Z,17.89
2019-04-23T09:40:31.717Z,17.87
2019-04-23T09:42:27.697Z,17.95
2019-04-23T09:43:19.741Z,17.98
2019-04-23T09:44:42.585Z,18.05
2019-04-23T09:45:22.750Z,18.05
2019-04-23T09:47:19.384Z,18.15
2019-04-23T09:48:35.312Z,18.16
2019-04-23T09:49:20.836Z,18.25
2019-04-23T09:50:20.163Z,18.15
2019-04-23T09:51:22.345Z,18.22
2019-04-23T09:52:20.373Z,18.20
2019-04-23T09:56:22.299Z,18.50
2019-04-23T09:57:16.001Z,18.55
2019-04-23T09:58:15.157Z,18.56
2019-04-23T09:59:26.796Z,18.66
2019-04-23T10:00:31.545Z,18.55
2019-04-23T10:01:23.784Z,18.71
2019-04-23T10:02:10.384Z,18.62
2019-04-23T10:03:09.070Z,18.49
2019-04-23T10:04:04.066Z,18.58
2019-04-23T10:05:08.430Z,18.47
2019-04-23T10:06:03.248Z,18.45
2019-04-23T10:07:06.818Z,18.35
2019-04-23T10:08:03.034Z,18.37
2019-04-23T10:08:56.216Z,18.31
2019-04-23T10:09:53.581Z,18.23
2019-04-23T10:10:51.486Z,18.25
2019-04-23T10:11:51.482Z,18.28
2019-04-23T10:12:51.450Z,18.26
2019-04-23T10:13:52.784Z,18.28
2019-04-23T10:15:01.284Z,18.23
2019-04-23T10:15:53.911Z,18.23
2019-04-23T10:16:53.309Z,18.23
2019-04-23T10:17:52.112Z,18.18
2019-04-23T10:18:51.382Z,18.23
2019-04-23T10:19:52.889Z,18.25
2019-04-23T10:20:52.301Z,18.35
2019-04-23T10:21:51.500Z,18.26
2019-04-23T10:22:52.620Z,18.22
2019-04-23T10:23:51.777Z,18.40
2019-04-23T10:24:53.145Z,18.33
2019-04-23T10:25:52.251Z,18.38
2019-04-23T10:26:52.289Z,18.41
2019-04-23T10:27:56.931Z,18.45
2019-04-23T10:28:53.879Z,18.52
2019-04-23T10:29:51.882Z,18.60
2019-04-23T10:30:51.276Z,18.60
2019-04-23T10:31:51.480Z,18.55
2019-04-23T10:32:51.625Z,18.58
2019-04-23T10:33:52.353Z,18.65
2019-04-23T10:35:03.796Z,18.73
2019-04-23T10:35:58.945Z,18.63
2019-04-23T10:36:53.633Z,18.60
2019-04-23T10:37:56.861Z,18.75
2019-04-23T10:39:00.599Z,18.63
2019-04-23T10:39:58.218Z,18.66
2019-04-23T10:40:52.686Z,18.78
2019-04-23T10:41:54.423Z,18.78
2019-04-23T10:42:52.262Z,18.74
2019-04-23T10:43:54.124Z,18.75
2019-04-23T10:44:58.669Z,18.90
2019-04-23T10:46:08.044Z,18.90
2019-04-23T10:47:15.215Z,18.88
2019-04-23T10:48:30.929Z,18.89
2019-04-23T10:50:27.643Z,19.00
2019-04-23T10:51:25.997Z,19.00
2019-04-23T10:52:19.067Z,19.08
2019-04-23T10:54:26.403Z,19.15
2019-04-23T10:55:25.761Z,19.26
2019-04-23T10:56:30.986Z,19.30
2019-04-23T10:57:17.128Z,19.34
2019-04-23T10:58:24.977Z,19.39
2019-04-23T10:59:19.409Z,19.39
2019-04-23T11:00:16.164Z,19.34
2019-04-23T11:01:23.979Z,19.49
2019-04-23T11:02:36.712Z,19.51
2019-04-23T11:03:43.675Z,19.51
2019-04-23T11:04:42.975Z,19.52
2019-04-23T11:05:30.392Z,19.54
2019-04-23T11:06:28.764Z,19.66
2019-04-23T11:08:19.937Z,19.58
2019-04-23T11:09:34.828Z,19.67
2019-04-23T11:11:23.569Z,19.63
2019-04-23T11:12:32.010Z,19.67
2019-04-23T11:13:25.617Z,19.77
2019-04-23T11:14:25.153Z,19.62
2019-04-23T11:17:26.056Z,19.70
2019-04-23T11:18:33.359Z,19.62
2019-04-23T11:19:27.642Z,19.66
2019-04-23T11:20:36.816Z,19.66
2019-04-23T11:22:38.977Z,19.74
2019-04-23T11:23:13.533Z,19.82
2019-04-23T11:24:32.385Z,19.77
2019-04-23T11:26:24.447Z,19.86
2019-04-23T11:27:26.154Z,19.88
2019-04-23T11:28:27.790Z,19.88
2019-04-23T11:29:30.127Z,19.88
2019-04-23T11:31:31.116Z,19.86
2019-04-23T11:32:40.669Z,19.91
2019-04-23T11:33:18.494Z,19.84
2019-04-23T11:34:43.988Z,19.85
2019-04-23T11:37:37.316Z,19.92
2019-04-23T11:38:51.186Z,19.92
2019-04-23T11:39:27.376Z,19.94
2019-04-23T11:40:23.189Z,19.91
2019-04-23T11:41:25.161Z,20.03
2019-04-23T11:42:17.944Z,19.92
2019-04-23T11:43:24.780Z,20.03
2019-04-23T11:44:26.951Z,20.02
2019-04-23T11:46:39.813Z,19.96
2019-04-23T11:48:02.404Z,20.03
2019-04-23T11:49:38.251Z,20.03
2019-04-23T11:50:31.736Z,20.00
2019-04-23T11:52:32.445Z,20.04
2019-04-23T11:53:32.020Z,20.11
2019-04-23T11:54:25.754Z,20.13
2019-04-23T11:55:33.072Z,20.28
2019-04-23T11:56:48.833Z,20.36
2019-04-23T11:57:29.842Z,20.50
2019-04-23T11:58:20.717Z,20.52
2019-04-23T11:59:31.668Z,20.55
2019-04-23T12:00:30.927Z,20.55
2019-04-23T12:02:23.225Z,20.41
2019-04-23T12:03:19.210Z,20.26
2019-04-23T12:05:29.759Z,20.26
2019-04-23T12:06:25.267Z,20.18
2019-04-23T12:07:24.250Z,20.22
2019-04-23T12:08:29.472Z,20.16
2019-04-23T12:09:26.414Z,20.13
2019-04-23T12:10:29.132Z,20.10
2019-04-23T12:11:46.453Z,20.14
2019-04-23T12:12:23.776Z,20.18
2019-04-23T12:13:26.999Z,20.10
2019-04-23T12:14:32.729Z,20.11
2019-04-23T12:15:25.181Z,20.11
2019-04-23T12:16:27.930Z,20.19
2019-04-23T12:18:30.552Z,20.25
2019-04-23T12:19:44.326Z,20.29
2019-04-23T12:20:25.629Z,20.36
2019-04-23T12:21:25.438Z,20.43
2019-04-23T12:23:31.680Z,20.56
2019-04-23T12:24:29.232Z,20.69
2019-04-23T12:26:33.833Z,20.75
2019-04-23T12:27:23.264Z,20.78
2019-04-23T12:28:22.607Z,20.84
2019-04-23T12:29:27.669Z,20.95
2019-04-23T12:30:27.550Z,21.02
2019-04-23T12:31:24.704Z,21.18
2019-04-23T12:32:38.041Z,21.42
2019-04-23T12:33:32.186Z,21.50
2019-04-23T12:34:25.083Z,21.70
2019-04-23T12:36:32.028Z,22.02
2019-04-23T12:37:23.606Z,22.25
2019-04-23T12:38:19.083Z,22.39
2019-04-23T12:39:21.526Z,22.47
2019-04-23T12:40:35.953Z,22.65
2019-04-23T12:41:21.079Z,22.81
2019-04-23T12:42:45.433Z,22.91
2019-04-23T12:44:26.401Z,23.21
2019-04-23T12:46:25.992Z,23.36
2019-04-23T12:47:38.014Z,23.48
2019-04-23T12:49:50.508Z,23.54
2019-04-23T12:50:42.231Z,23.46
2019-04-23T12:51:26.603Z,23.46
2019-04-23T12:52:25.544Z,23.40
2019-04-23T12:53:25.797Z,23.34
2019-04-23T12:54:35.737Z,23.48
2019-04-23T12:55:23.300Z,23.43
2019-04-23T12:56:34.744Z,23.54
2019-04-23T12:57:29.951Z,23.48
2019-04-23T12:58:22.191Z,23.61
2019-04-23T12:59:25.290Z,23.62
2019-04-23T13:00:20.912Z,23.69
2019-04-23T13:01:24.875Z,23.68
2019-04-23T13:02:27.435Z,23.66
2019-04-23T13:05:23.127Z,23.86
2019-04-23T13:06:17.063Z,23.77
2019-04-23T13:07:26.065Z,23.78
2019-04-23T13:09:34.691Z,23.69
2019-04-23T13:10:25.136Z,23.59
2019-04-23T13:11:23.268Z,23.55
2019-04-23T13:12:33.256Z,23.58
2019-04-23T13:13:23.874Z,23.58
2019-04-23T13:14:30.463Z,23.55
2019-04-23T13:15:15.571Z,23.36
2019-04-23T13:16:28.077Z,23.27
2019-04-23T13:17:31.207Z,23.31
2019-04-23T13:18:17.321Z,23.28
2019-04-23T13:19:33.335Z,23.21
2019-04-23T13:21:38.413Z,23.21
2019-04-23T13:22:24.262Z,23.25
2019-04-23T13:24:22.831Z,23.23
2019-04-23T13:25:19.999Z,23.20
2019-04-23T13:26:16.128Z,23.28
2019-04-23T13:27:23.868Z,23.15
2019-04-23T13:29:32.927Z,23.28
2019-04-23T13:30:23.203Z,23.34
2019-04-23T13:31:17.841Z,23.36
2019-04-23T13:32:21.070Z,23.28
2019-04-23T13:33:30.787Z,23.34
2019-04-23T13:34:22.557Z,23.34
2019-04-23T13:35:38.060Z,23.25
2019-04-23T13:36:28.723Z,23.23
2019-04-23T13:37:33.639Z,23.24
2019-04-23T13:38:28.616Z,23.10
2019-04-23T13:39:17.965Z,23.10
2019-04-23T13:40:24.722Z,23.05
2019-04-23T13:41:31.701Z,22.98
2019-04-23T13:42:39.580Z,22.96
2019-04-23T13:43:29.866Z,22.98
2019-04-23T13:44:23.587Z,22.85
2019-04-23T13:45:33.270Z,22.81
2019-04-23T13:46:14.831Z,22.81
2019-04-23T13:47:28.222Z,22.83
2019-04-23T13:48:18.345Z,22.84
2019-04-23T13:49:18.019Z,22.93
2019-04-23T13:50:35.566Z,22.80
2019-04-23T13:51:21.274Z,22.81
2019-04-23T13:52:48.791Z,22.83
2019-04-23T13:54:27.891Z,22.70
2019-04-23T13:55:30.029Z,22.62
2019-04-23T13:56:24.771Z,22.62
2019-04-23T13:57:46.534Z,22.54
2019-04-23T13:58:22.663Z,22.69
2019-04-23T13:59:26.284Z,22.62
2019-04-23T14:00:25.069Z,22.65
2019-04-23T14:01:28.052Z,22.68
2019-04-23T14:02:34.340Z,22.62
2019-04-23T14:03:23.044Z,22.68
2019-04-23T14:04:41.658Z,22.68
2019-04-23T14:05:23.964Z,22.62
2019-04-23T14:06:25.056Z,22.75
2019-04-23T14:07:24.877Z,22.72
2019-04-23T14:08:33.445Z,22.75
2019-04-23T14:10:34.248Z,22.80
2019-04-23T14:11:23.712Z,22.75
2019-04-23T14:12:24.147Z,22.76
2019-04-23T14:14:24.996Z,22.66
2019-04-23T14:15:25.251Z,22.69
2019-04-23T14:18:43.405Z,22.78
2019-04-23T14:19:16.387Z,22.72
2019-04-23T14:22:46.232Z,22.66
2019-04-23T14:23:27.252Z,22.59
2019-04-23T14:26:27.613Z,22.55
2019-04-23T14:27:20.016Z,22.59
2019-04-23T14:28:21.668Z,22.57
2019-04-23T14:29:21.319Z,22.60
2019-04-23T14:30:31.320Z,22.60
2019-04-23T14:31:30.416Z,22.57
2019-04-23T14:34:19.331Z,22.72
2019-04-23T14:35:32.403Z,22.72
2019-04-23T14:36:19.446Z,22.75
2019-04-23T14:37:17.939Z,22.78
2019-04-23T14:40:26.457Z,22.80
2019-04-23T14:41:23.440Z,22.80
2019-04-23T14:42:36.419Z,22.96
2019-04-23T14:43:25.765Z,22.84
2019-04-23T14:44:12.886Z,22.83
2019-04-23T14:45:29.584Z,22.85
2019-04-23T14:46:41.271Z,22.91
2019-04-23T14:47:24.059Z,22.90
2019-04-23T14:48:29.930Z,22.98
2019-04-23T14:49:24.647Z,22.99
2019-04-23T14:51:26.861Z,23.00
2019-04-23T14:52:21.381Z,23.00
2019-04-23T14:53:20.211Z,22.98
2019-04-23T14:54:24.897Z,23.02
2019-04-23T14:56:16.122Z,23.08
2019-04-23T14:57:26.185Z,23.12
2019-04-23T14:58:27.788Z,23.12
2019-04-23T14:59:10.419Z,23.21
2019-04-23T15:00:29.112Z,23.28
2019-04-23T15:02:23.576Z,23.36
2019-04-23T15:03:26.752Z,23.46
2019-04-23T15:04:19.240Z,23.51
2019-04-23T15:05:17.333Z,23.71
2019-04-23T15:06:27.774Z,23.80
2019-04-23T15:07:22.625Z,23.87
2019-04-23T15:08:25.154Z,23.95
2019-04-23T15:09:22.819Z,24.06
2019-04-23T15:10:24.802Z,24.20
2019-04-23T15:11:44.152Z,24.05
2019-04-23T15:13:22.862Z,24.06
2019-04-23T15:14:16.893Z,24.01
2019-04-23T15:15:21.238Z,24.01
2019-04-23T15:17:20.445Z,23.98
2019-04-23T15:18:33.071Z,23.88
2019-04-23T15:20:15.016Z,23.93
2019-04-23T15:23:33.254Z,23.87
2019-04-23T15:25:26.345Z,23.81
2019-04-23T15:27:21.220Z,23.81
2019-04-23T15:28:09.085Z,24.08
2019-04-23T15:28:58.694Z,24.17
2019-04-23T15:30:08.685Z,24.18
2019-04-23T15:31:34.873Z,24.35
2019-04-23T15:32:18.685Z,24.32
2019-04-23T15:33:36.978Z,24.33
2019-04-23T15:37:33.408Z,24.05
2019-04-23T15:38:36.025Z,24.08
2019-04-23T15:40:23.614Z,23.88
2019-04-23T15:41:24.460Z,23.95
2019-04-23T15:42:16.621Z,23.78
2019-04-23T15:43:20.411Z,23.78
2019-04-23T15:44:13.494Z,23.73
2019-04-23T15:45:16.918Z,23.69
2019-04-23T15:47:33.080Z,23.54
2019-04-23T15:48:16.552Z,23.63
2019-04-23T15:50:23.510Z,23.59
2019-04-23T15:51:28.296Z,23.54
2019-04-23T15:53:14.369Z,23.50
2019-04-23T15:54:17.842Z,23.48
2019-04-23T15:55:12.526Z,23.40
2019-04-23T15:56:27.199Z,23.47